sensor_id;sensor_type;location;lat;lon;timestamp;P1;durP1;ratioP1;P2;durP2;ratioP2
37409;SDS011;23275;48.914;12.566;2024-01-30T00:00:43;17.70;;;9.30;;
37409;SDS011;23275;48.914;12.566;2024-01-30T00:03:08;19.02;;;9.30;;
37409;SDS011;23275;48.914;12.566;2024-01-30T00:05:34;16.75;;;9.30;;
37409;SDS011;23275;48.914;12.566;2024-01-30T00:07:59;17.05;;;9.52;;
37409;SDS011;23275;48.914;12.566;2024-01-30T00:10:25;15.63;;;8.60;;
37409;SDS011;23275;48.914;12.566;2024-01-30T00:12:50;19.52;;;9.07;;
37409;SDS011;23275;48.914;12.566;2024-01-30T00:15:16;14.60;;;8.20;;
37409;SDS011;23275;48.914;12.566;2024-01-30T00:17:41;22.10;;;9.15;;
37409;SDS011;23275;48.914;12.566;2024-01-30T00:20:07;18.58;;;8.98;;
37409;SDS011;23275;48.914;12.566;2024-01-30T00:22:34;14.13;;;7.97;;
37409;SDS011;23275;48.914;12.566;2024-01-30T00:24:59;16.42;;;7.90;;
37409;SDS011;23275;48.914;12.566;2024-01-30T00:27:25;18.88;;;8.23;;
37409;SDS011;23275;48.914;12.566;2024-01-30T00:29:52;13.90;;;7.88;;
37409;SDS011;23275;48.914;12.566;2024-01-30T00:32:17;15.30;;;8.52;;
37409;SDS011;23275;48.914;12.566;2024-01-30T00:34:44;17.15;;;8.73;;
37409;SDS011;23275;48.914;12.566;2024-01-30T00:37:10;19.23;;;8.68;;
37409;SDS011;23275;48.914;12.566;2024-01-30T00:39:35;18.67;;;9.73;;
37409;SDS011;23275;48.914;12.566;2024-01-30T00:42:01;15.30;;;8.52;;
37409;SDS011;23275;48.914;12.566;2024-01-30T00:44:26;16.40;;;9.23;;
37409;SDS011;23275;48.914;12.566;2024-01-30T00:46:52;20.90;;;10.50;;
37409;SDS011;23275;48.914;12.566;2024-01-30T00:49:17;21.80;;;10.43;;
37409;SDS011;23275;48.914;12.566;2024-01-30T00:51:43;20.70;;;10.10;;
37409;SDS011;23275;48.914;12.566;2024-01-30T00:54:09;21.10;;;9.23;;
37409;SDS011;23275;48.914;12.566;2024-01-30T00:56:34;19.65;;;8.98;;
37409;SDS011;23275;48.914;12.566;2024-01-30T00:59:00;20.70;;;9.40;;
37409;SDS011;23275;48.914;12.566;2024-01-30T01:01:25;16.95;;;8.57;;
37409;SDS011;23275;48.914;12.566;2024-01-30T01:03:51;16.88;;;9.35;;
37409;SDS011;23275;48.914;12.566;2024-01-30T01:06:16;13.93;;;8.73;;
37409;SDS011;23275;48.914;12.566;2024-01-30T01:08:42;20.17;;;10.52;;
37409;SDS011;23275;48.914;12.566;2024-01-30T01:11:07;18.58;;;9.55;;
37409;SDS011;23275;48.914;12.566;2024-01-30T01:13:33;19.48;;;10.10;;
37409;SDS011;23275;48.914;12.566;2024-01-30T01:15:58;21.33;;;9.68;;
37409;SDS011;23275;48.914;12.566;2024-01-30T01:18:24;20.85;;;10.05;;
37409;SDS011;23275;48.914;12.566;2024-01-30T01:20:50;18.42;;;9.45;;
37409;SDS011;23275;48.914;12.566;2024-01-30T01:23:15;21.90;;;9.77;;
37409;SDS011;23275;48.914;12.566;2024-01-30T01:25:41;21.08;;;9.52;;
37409;SDS011;23275;48.914;12.566;2024-01-30T01:28:06;20.20;;;9.90;;
37409;SDS011;23275;48.914;12.566;2024-01-30T01:30:32;21.80;;;9.27;;
37409;SDS011;23275;48.914;12.566;2024-01-30T01:32:57;19.90;;;10.15;;
37409;SDS011;23275;48.914;12.566;2024-01-30T01:35:26;18.27;;;9.98;;
37409;SDS011;23275;48.914;12.566;2024-01-30T01:37:52;18.02;;;9.65;;
37409;SDS011;23275;48.914;12.566;2024-01-30T01:40:22;17.77;;;9.48;;
37409;SDS011;23275;48.914;12.566;2024-01-30T01:42:49;20.13;;;10.07;;
37409;SDS011;23275;48.914;12.566;2024-01-30T01:45:16;15.65;;;9.05;;
37409;SDS011;23275;48.914;12.566;2024-01-30T01:47:41;17.63;;;9.00;;
37409;SDS011;23275;48.914;12.566;2024-01-30T01:50:08;16.92;;;8.82;;
37409;SDS011;23275;48.914;12.566;2024-01-30T01:52:33;16.98;;;9.23;;
37409;SDS011;23275;48.914;12.566;2024-01-30T01:54:59;22.13;;;10.23;;
37409;SDS011;23275;48.914;12.566;2024-01-30T01:57:25;18.02;;;9.05;;
37409;SDS011;23275;48.914;12.566;2024-01-30T01:59:51;18.13;;;9.82;;
37409;SDS011;23275;48.914;12.566;2024-01-30T02:02:17;15.15;;;10.00;;
37409;SDS011;23275;48.914;12.566;2024-01-30T02:04:44;23.60;;;10.80;;
37409;SDS011;23275;48.914;12.566;2024-01-30T02:07:10;20.23;;;9.65;;
37409;SDS011;23275;48.914;12.566;2024-01-30T02:09:36;23.75;;;9.32;;
37409;SDS011;23275;48.914;12.566;2024-01-30T02:12:02;19.33;;;9.13;;
37409;SDS011;23275;48.914;12.566;2024-01-30T02:14:28;16.98;;;9.50;;
37409;SDS011;23275;48.914;12.566;2024-01-30T02:16:53;17.52;;;9.25;;
37409;SDS011;23275;48.914;12.566;2024-01-30T02:19:19;16.77;;;9.13;;
37409;SDS011;23275;48.914;12.566;2024-01-30T02:21:45;17.35;;;9.80;;
37409;SDS011;23275;48.914;12.566;2024-01-30T02:24:11;23.13;;;9.75;;
37409;SDS011;23275;48.914;12.566;2024-01-30T02:26:37;16.40;;;7.88;;
37409;SDS011;23275;48.914;12.566;2024-01-30T02:29:02;13.35;;;8.13;;
37409;SDS011;23275;48.914;12.566;2024-01-30T02:31:28;17.15;;;9.25;;
37409;SDS011;23275;48.914;12.566;2024-01-30T02:33:53;14.57;;;8.20;;
37409;SDS011;23275;48.914;12.566;2024-01-30T02:36:19;22.15;;;9.15;;
37409;SDS011;23275;48.914;12.566;2024-01-30T02:38:44;16.00;;;8.55;;
37409;SDS011;23275;48.914;12.566;2024-01-30T02:41:11;17.63;;;9.23;;
37409;SDS011;23275;48.914;12.566;2024-01-30T02:43:37;18.38;;;9.35;;
37409;SDS011;23275;48.914;12.566;2024-01-30T02:46:02;17.83;;;9.88;;
37409;SDS011;23275;48.914;12.566;2024-01-30T02:48:28;20.58;;;9.18;;
37409;SDS011;23275;48.914;12.566;2024-01-30T02:50:54;17.75;;;9.23;;
37409;SDS011;23275;48.914;12.566;2024-01-30T02:53:19;16.40;;;9.15;;
37409;SDS011;23275;48.914;12.566;2024-01-30T02:55:45;24.52;;;9.60;;
37409;SDS011;23275;48.914;12.566;2024-01-30T02:58:10;21.23;;;9.43;;
37409;SDS011;23275;48.914;12.566;2024-01-30T03:00:36;17.33;;;8.38;;
37409;SDS011;23275;48.914;12.566;2024-01-30T03:03:01;18.13;;;8.70;;
37409;SDS011;23275;48.914;12.566;2024-01-30T03:05:27;17.48;;;8.63;;
37409;SDS011;23275;48.914;12.566;2024-01-30T03:07:53;18.67;;;8.70;;
37409;SDS011;23275;48.914;12.566;2024-01-30T03:10:18;17.73;;;8.10;;
37409;SDS011;23275;48.914;12.566;2024-01-30T03:12:44;17.60;;;8.23;;
37409;SDS011;23275;48.914;12.566;2024-01-30T03:15:09;17.38;;;9.00;;
37409;SDS011;23275;48.914;12.566;2024-01-30T03:17:35;16.38;;;9.43;;
37409;SDS011;23275;48.914;12.566;2024-01-30T03:20:01;16.02;;;9.18;;
37409;SDS011;23275;48.914;12.566;2024-01-30T03:22:28;17.13;;;8.60;;
37409;SDS011;23275;48.914;12.566;2024-01-30T03:24:54;19.33;;;9.63;;
37409;SDS011;23275;48.914;12.566;2024-01-30T03:27:19;20.92;;;8.63;;
37409;SDS011;23275;48.914;12.566;2024-01-30T03:29:45;17.27;;;8.20;;
37409;SDS011;23275;48.914;12.566;2024-01-30T03:32:10;14.85;;;7.97;;
37409;SDS011;23275;48.914;12.566;2024-01-30T03:34:36;19.58;;;9.23;;
37409;SDS011;23275;48.914;12.566;2024-01-30T03:37:02;16.67;;;8.35;;
37409;SDS011;23275;48.914;12.566;2024-01-30T03:39:27;16.00;;;8.85;;
37409;SDS011;23275;48.914;12.566;2024-01-30T03:41:53;19.40;;;8.93;;
37409;SDS011;23275;48.914;12.566;2024-01-30T03:44:18;19.40;;;8.90;;
37409;SDS011;23275;48.914;12.566;2024-01-30T03:46:44;15.68;;;8.07;;
37409;SDS011;23275;48.914;12.566;2024-01-30T03:49:10;16.15;;;8.45;;
37409;SDS011;23275;48.914;12.566;2024-01-30T03:51:36;16.02;;;8.80;;
37409;SDS011;23275;48.914;12.566;2024-01-30T03:54:01;14.15;;;7.90;;
37409;SDS011;23275;48.914;12.566;2024-01-30T03:56:27;18.10;;;8.45;;
37409;SDS011;23275;48.914;12.566;2024-01-30T03:58:52;15.48;;;8.45;;
37409;SDS011;23275;48.914;12.566;2024-01-30T04:01:18;16.95;;;8.13;;
37409;SDS011;23275;48.914;12.566;2024-01-30T04:03:44;19.25;;;9.48;;
37409;SDS011;23275;48.914;12.566;2024-01-30T04:06:09;20.33;;;9.48;;
37409;SDS011;23275;48.914;12.566;2024-01-30T04:08:35;18.27;;;9.43;;
37409;SDS011;23275;48.914;12.566;2024-01-30T04:11:05;17.40;;;9.50;;
37409;SDS011;23275;48.914;12.566;2024-01-30T04:13:31;19.60;;;9.55;;
37409;SDS011;23275;48.914;12.566;2024-01-30T04:15:58;17.05;;;9.73;;
37409;SDS011;23275;48.914;12.566;2024-01-30T04:18:28;19.45;;;9.02;;
37409;SDS011;23275;48.914;12.566;2024-01-30T04:20:54;31.08;;;13.32;;
37409;SDS011;23275;48.914;12.566;2024-01-30T04:23:20;24.13;;;11.55;;
37409;SDS011;23275;48.914;12.566;2024-01-30T04:25:45;21.85;;;10.18;;
37409;SDS011;23275;48.914;12.566;2024-01-30T04:28:11;17.45;;;9.77;;
37409;SDS011;23275;48.914;12.566;2024-01-30T04:30:37;18.73;;;10.05;;
37409;SDS011;23275;48.914;12.566;2024-01-30T04:33:03;23.27;;;9.20;;
37409;SDS011;23275;48.914;12.566;2024-01-30T04:35:29;19.15;;;9.98;;
37409;SDS011;23275;48.914;12.566;2024-01-30T04:37:54;20.27;;;10.00;;
37409;SDS011;23275;48.914;12.566;2024-01-30T04:40:20;20.45;;;9.52;;
37409;SDS011;23275;48.914;12.566;2024-01-30T04:42:46;17.58;;;8.88;;
37409;SDS011;23275;48.914;12.566;2024-01-30T04:45:12;18.60;;;9.85;;
37409;SDS011;23275;48.914;12.566;2024-01-30T04:47:37;19.35;;;9.95;;
37409;SDS011;23275;48.914;12.566;2024-01-30T04:50:04;21.98;;;11.02;;
37409;SDS011;23275;48.914;12.566;2024-01-30T04:52:31;23.80;;;10.93;;
37409;SDS011;23275;48.914;12.566;2024-01-30T04:54:57;17.25;;;10.52;;
37409;SDS011;23275;48.914;12.566;2024-01-30T04:57:22;24.40;;;10.98;;
37409;SDS011;23275;48.914;12.566;2024-01-30T04:59:48;23.40;;;11.50;;
37409;SDS011;23275;48.914;12.566;2024-01-30T05:02:13;17.83;;;10.18;;
37409;SDS011;23275;48.914;12.566;2024-01-30T05:04:40;17.35;;;10.50;;
37409;SDS011;23275;48.914;12.566;2024-01-30T05:07:06;17.92;;;10.35;;
37409;SDS011;23275;48.914;12.566;2024-01-30T05:09:32;23.48;;;11.65;;
37409;SDS011;23275;48.914;12.566;2024-01-30T05:11:57;17.30;;;9.65;;
37409;SDS011;23275;48.914;12.566;2024-01-30T05:14:23;18.30;;;10.18;;
37409;SDS011;23275;48.914;12.566;2024-01-30T05:16:49;25.25;;;11.57;;
37409;SDS011;23275;48.914;12.566;2024-01-30T05:19:15;18.58;;;9.02;;
37409;SDS011;23275;48.914;12.566;2024-01-30T05:21:41;19.75;;;10.65;;
37409;SDS011;23275;48.914;12.566;2024-01-30T05:24:06;20.83;;;11.20;;
37409;SDS011;23275;48.914;12.566;2024-01-30T05:26:34;21.83;;;10.40;;
37409;SDS011;23275;48.914;12.566;2024-01-30T05:29:00;22.38;;;10.70;;
37409;SDS011;23275;48.914;12.566;2024-01-30T05:31:26;20.35;;;11.57;;
37409;SDS011;23275;48.914;12.566;2024-01-30T05:33:52;21.27;;;11.73;;
37409;SDS011;23275;48.914;12.566;2024-01-30T05:36:18;23.17;;;11.63;;
37409;SDS011;23275;48.914;12.566;2024-01-30T05:38:43;26.63;;;11.90;;
37409;SDS011;23275;48.914;12.566;2024-01-30T05:41:09;22.30;;;10.98;;
37409;SDS011;23275;48.914;12.566;2024-01-30T05:43:34;26.75;;;11.65;;
37409;SDS011;23275;48.914;12.566;2024-01-30T05:46:00;23.70;;;11.07;;
37409;SDS011;23275;48.914;12.566;2024-01-30T05:48:25;24.77;;;10.60;;
37409;SDS011;23275;48.914;12.566;2024-01-30T05:50:51;21.98;;;12.20;;
37409;SDS011;23275;48.914;12.566;2024-01-30T05:53:16;20.10;;;10.63;;
37409;SDS011;23275;48.914;12.566;2024-01-30T05:55:42;29.08;;;12.10;;
37409;SDS011;23275;48.914;12.566;2024-01-30T05:58:07;23.42;;;11.95;;
37409;SDS011;23275;48.914;12.566;2024-01-30T06:00:33;24.17;;;12.05;;
37409;SDS011;23275;48.914;12.566;2024-01-30T06:02:59;21.35;;;11.25;;
37409;SDS011;23275;48.914;12.566;2024-01-30T06:05:24;22.27;;;10.75;;
37409;SDS011;23275;48.914;12.566;2024-01-30T06:07:50;24.98;;;12.05;;
37409;SDS011;23275;48.914;12.566;2024-01-30T06:10:15;24.60;;;12.20;;
37409;SDS011;23275;48.914;12.566;2024-01-30T06:12:41;19.35;;;10.43;;
37409;SDS011;23275;48.914;12.566;2024-01-30T06:15:06;22.25;;;11.70;;
37409;SDS011;23275;48.914;12.566;2024-01-30T06:17:32;29.05;;;12.52;;
37409;SDS011;23275;48.914;12.566;2024-01-30T06:19:58;23.38;;;11.43;;
37409;SDS011;23275;48.914;12.566;2024-01-30T06:22:24;24.92;;;11.43;;
37409;SDS011;23275;48.914;12.566;2024-01-30T06:24:50;21.02;;;11.15;;
37409;SDS011;23275;48.914;12.566;2024-01-30T06:27:15;17.75;;;10.80;;
37409;SDS011;23275;48.914;12.566;2024-01-30T06:29:42;26.83;;;12.40;;
37409;SDS011;23275;48.914;12.566;2024-01-30T06:32:08;22.92;;;10.75;;
37409;SDS011;23275;48.914;12.566;2024-01-30T06:34:34;25.08;;;11.65;;
37409;SDS011;23275;48.914;12.566;2024-01-30T06:36:59;26.55;;;12.38;;
37409;SDS011;23275;48.914;12.566;2024-01-30T06:39:25;21.90;;;12.23;;
37409;SDS011;23275;48.914;12.566;2024-01-30T06:41:52;23.13;;;11.85;;
37409;SDS011;23275;48.914;12.566;2024-01-30T06:44:17;23.80;;;11.57;;
37409;SDS011;23275;48.914;12.566;2024-01-30T06:46:43;25.75;;;12.65;;
37409;SDS011;23275;48.914;12.566;2024-01-30T06:49:08;29.02;;;11.63;;
37409;SDS011;23275;48.914;12.566;2024-01-30T06:51:34;23.58;;;11.88;;
37409;SDS011;23275;48.914;12.566;2024-01-30T06:53:59;27.40;;;13.02;;
37409;SDS011;23275;48.914;12.566;2024-01-30T06:56:25;26.08;;;12.13;;
37409;SDS011;23275;48.914;12.566;2024-01-30T06:58:50;29.95;;;13.93;;
37409;SDS011;23275;48.914;12.566;2024-01-30T07:01:16;26.15;;;13.45;;
37409;SDS011;23275;48.914;12.566;2024-01-30T07:03:42;24.15;;;12.50;;
37409;SDS011;23275;48.914;12.566;2024-01-30T07:06:08;23.00;;;11.73;;
37409;SDS011;23275;48.914;12.566;2024-01-30T07:08:35;22.98;;;12.30;;
37409;SDS011;23275;48.914;12.566;2024-01-30T07:11:02;26.48;;;13.48;;
37409;SDS011;23275;48.914;12.566;2024-01-30T07:13:27;22.13;;;11.73;;
37409;SDS011;23275;48.914;12.566;2024-01-30T07:15:53;26.17;;;12.05;;
37409;SDS011;23275;48.914;12.566;2024-01-30T07:18:19;21.25;;;12.13;;
37409;SDS011;23275;48.914;12.566;2024-01-30T07:20:45;21.70;;;11.98;;
37409;SDS011;23275;48.914;12.566;2024-01-30T07:23:14;23.85;;;11.88;;
37409;SDS011;23275;48.914;12.566;2024-01-30T07:25:42;24.52;;;13.02;;
37409;SDS011;23275;48.914;12.566;2024-01-30T07:28:13;25.10;;;11.98;;
37409;SDS011;23275;48.914;12.566;2024-01-30T07:30:41;24.35;;;11.57;;
37409;SDS011;23275;48.914;12.566;2024-01-30T07:33:07;24.98;;;11.68;;
37409;SDS011;23275;48.914;12.566;2024-01-30T07:35:33;22.77;;;11.23;;
37409;SDS011;23275;48.914;12.566;2024-01-30T07:37:59;24.85;;;10.95;;
37409;SDS011;23275;48.914;12.566;2024-01-30T07:40:25;22.95;;;10.70;;
37409;SDS011;23275;48.914;12.566;2024-01-30T07:42:50;24.25;;;11.68;;
37409;SDS011;23275;48.914;12.566;2024-01-30T07:45:18;21.30;;;12.35;;
37409;SDS011;23275;48.914;12.566;2024-01-30T07:47:47;20.83;;;11.18;;
37409;SDS011;23275;48.914;12.566;2024-01-30T07:50:16;26.08;;;11.32;;
37409;SDS011;23275;48.914;12.566;2024-01-30T07:52:42;26.65;;;12.05;;
37409;SDS011;23275;48.914;12.566;2024-01-30T07:55:08;25.48;;;11.18;;
37409;SDS011;23275;48.914;12.566;2024-01-30T07:57:34;24.63;;;12.80;;
37409;SDS011;23275;48.914;12.566;2024-01-30T08:00:02;22.40;;;11.32;;
37409;SDS011;23275;48.914;12.566;2024-01-30T08:02:28;20.30;;;11.13;;
37409;SDS011;23275;48.914;12.566;2024-01-30T08:04:54;21.08;;;11.85;;
37409;SDS011;23275;48.914;12.566;2024-01-30T08:07:19;21.35;;;11.82;;
37409;SDS011;23275;48.914;12.566;2024-01-30T08:09:47;21.25;;;10.98;;
37409;SDS011;23275;48.914;12.566;2024-01-30T08:12:12;18.83;;;11.88;;
37409;SDS011;23275;48.914;12.566;2024-01-30T08:14:38;20.42;;;11.45;;
37409;SDS011;23275;48.914;12.566;2024-01-30T08:17:04;19.70;;;10.88;;
37409;SDS011;23275;48.914;12.566;2024-01-30T08:19:32;20.52;;;11.18;;
37409;SDS011;23275;48.914;12.566;2024-01-30T08:21:58;20.63;;;11.38;;
37409;SDS011;23275;48.914;12.566;2024-01-30T08:24:23;20.35;;;11.05;;
37409;SDS011;23275;48.914;12.566;2024-01-30T08:26:49;20.60;;;10.63;;
37409;SDS011;23275;48.914;12.566;2024-01-30T08:29:14;21.50;;;10.85;;
37409;SDS011;23275;48.914;12.566;2024-01-30T08:31:40;17.23;;;10.13;;
37409;SDS011;23275;48.914;12.566;2024-01-30T08:34:05;19.80;;;10.70;;
37409;SDS011;23275;48.914;12.566;2024-01-30T08:36:31;18.30;;;10.00;;
37409;SDS011;23275;48.914;12.566;2024-01-30T08:38:56;18.60;;;9.75;;
37409;SDS011;23275;48.914;12.566;2024-01-30T08:41:22;25.38;;;11.15;;
37409;SDS011;23275;48.914;12.566;2024-01-30T08:43:47;17.77;;;10.07;;
37409;SDS011;23275;48.914;12.566;2024-01-30T08:46:16;19.52;;;11.27;;
37409;SDS011;23275;48.914;12.566;2024-01-30T08:48:42;19.48;;;10.90;;
37409;SDS011;23275;48.914;12.566;2024-01-30T08:51:08;18.55;;;10.93;;
37409;SDS011;23275;48.914;12.566;2024-01-30T08:53:34;17.52;;;10.55;;
37409;SDS011;23275;48.914;12.566;2024-01-30T08:56:01;17.55;;;10.25;;
37409;SDS011;23275;48.914;12.566;2024-01-30T08:58:27;21.30;;;10.85;;
37409;SDS011;23275;48.914;12.566;2024-01-30T09:00:52;16.10;;;10.90;;
37409;SDS011;23275;48.914;12.566;2024-01-30T09:03:18;18.83;;;10.90;;
37409;SDS011;23275;48.914;12.566;2024-01-30T09:05:44;16.92;;;11.20;;
37409;SDS011;23275;48.914;12.566;2024-01-30T09:08:27;16.90;;;10.73;;
37409;SDS011;23275;48.914;12.566;2024-01-30T09:10:56;18.45;;;10.85;;
37409;SDS011;23275;48.914;12.566;2024-01-30T09:13:21;18.00;;;11.25;;
37409;SDS011;23275;48.914;12.566;2024-01-30T09:15:47;18.27;;;11.05;;
37409;SDS011;23275;48.914;12.566;2024-01-30T09:18:13;16.63;;;10.27;;
37409;SDS011;23275;48.914;12.566;2024-01-30T09:20:38;18.63;;;11.73;;
37409;SDS011;23275;48.914;12.566;2024-01-30T09:23:04;16.05;;;10.82;;
37409;SDS011;23275;48.914;12.566;2024-01-30T09:25:42;17.15;;;11.25;;
37409;SDS011;23275;48.914;12.566;2024-01-30T09:28:13;19.25;;;11.07;;
37409;SDS011;23275;48.914;12.566;2024-01-30T09:30:39;18.30;;;11.07;;
37409;SDS011;23275;48.914;12.566;2024-01-30T09:33:06;20.65;;;11.30;;
37409;SDS011;23275;48.914;12.566;2024-01-30T09:35:32;18.77;;;11.60;;
37409;SDS011;23275;48.914;12.566;2024-01-30T09:37:57;17.52;;;11.43;;
37409;SDS011;23275;48.914;12.566;2024-01-30T09:40:23;19.83;;;12.13;;
37409;SDS011;23275;48.914;12.566;2024-01-30T09:42:52;18.50;;;10.95;;
37409;SDS011;23275;48.914;12.566;2024-01-30T09:45:19;18.92;;;11.45;;
37409;SDS011;23275;48.914;12.566;2024-01-30T09:47:49;15.98;;;10.98;;
37409;SDS011;23275;48.914;12.566;2024-01-30T09:50:15;16.50;;;11.45;;
37409;SDS011;23275;48.914;12.566;2024-01-30T09:52:41;19.13;;;11.68;;
37409;SDS011;23275;48.914;12.566;2024-01-30T09:55:09;17.65;;;12.07;;
37409;SDS011;23275;48.914;12.566;2024-01-30T09:57:34;19.08;;;11.65;;
37409;SDS011;23275;48.914;12.566;2024-01-30T10:00:00;18.95;;;11.57;;
37409;SDS011;23275;48.914;12.566;2024-01-30T10:02:27;18.73;;;11.50;;
37409;SDS011;23275;48.914;12.566;2024-01-30T10:04:52;21.75;;;11.93;;
37409;SDS011;23275;48.914;12.566;2024-01-30T10:07:18;17.33;;;11.00;;
37409;SDS011;23275;48.914;12.566;2024-01-30T10:09:44;17.55;;;10.95;;
37409;SDS011;23275;48.914;12.566;2024-01-30T10:12:10;18.52;;;11.38;;
37409;SDS011;23275;48.914;12.566;2024-01-30T10:14:39;16.23;;;11.30;;
37409;SDS011;23275;48.914;12.566;2024-01-30T10:17:07;20.00;;;12.07;;
37409;SDS011;23275;48.914;12.566;2024-01-30T10:19:34;16.80;;;10.95;;
37409;SDS011;23275;48.914;12.566;2024-01-30T10:22:00;15.68;;;10.82;;
37409;SDS011;23275;48.914;12.566;2024-01-30T10:24:26;23.15;;;11.40;;
37409;SDS011;23275;48.914;12.566;2024-01-30T10:26:52;18.88;;;11.02;;
37409;SDS011;23275;48.914;12.566;2024-01-30T10:29:18;21.17;;;12.05;;
37409;SDS011;23275;48.914;12.566;2024-01-30T10:31:44;17.35;;;10.98;;
37409;SDS011;23275;48.914;12.566;2024-01-30T10:34:09;16.25;;;11.52;;
37409;SDS011;23275;48.914;12.566;2024-01-30T10:36:38;19.73;;;11.77;;
37409;SDS011;23275;48.914;12.566;2024-01-30T10:39:06;20.23;;;11.20;;
37409;SDS011;23275;48.914;12.566;2024-01-30T10:41:34;15.38;;;10.63;;
37409;SDS011;23275;48.914;12.566;2024-01-30T10:44:08;22.95;;;12.48;;
37409;SDS011;23275;48.914;12.566;2024-01-30T10:46:35;18.40;;;11.45;;
37409;SDS011;23275;48.914;12.566;2024-01-30T10:49:03;18.70;;;11.40;;
37409;SDS011;23275;48.914;12.566;2024-01-30T10:51:31;20.35;;;11.48;;
37409;SDS011;23275;48.914;12.566;2024-01-30T10:53:57;19.20;;;11.57;;
37409;SDS011;23275;48.914;12.566;2024-01-30T10:56:23;17.40;;;11.65;;
37409;SDS011;23275;48.914;12.566;2024-01-30T10:58:50;20.98;;;11.85;;
37409;SDS011;23275;48.914;12.566;2024-01-30T11:01:20;16.90;;;11.30;;
37409;SDS011;23275;48.914;12.566;2024-01-30T11:03:57;17.63;;;11.43;;
37409;SDS011;23275;48.914;12.566;2024-01-30T11:06:23;20.42;;;11.82;;
37409;SDS011;23275;48.914;12.566;2024-01-30T11:09:02;19.95;;;12.10;;
37409;SDS011;23275;48.914;12.566;2024-01-30T11:11:29;20.92;;;12.55;;
37409;SDS011;23275;48.914;12.566;2024-01-30T11:13:54;23.02;;;12.93;;
37409;SDS011;23275;48.914;12.566;2024-01-30T11:16:20;20.90;;;13.00;;
37409;SDS011;23275;48.914;12.566;2024-01-30T11:18:50;20.02;;;12.68;;
37409;SDS011;23275;48.914;12.566;2024-01-30T11:21:19;21.27;;;13.15;;
37409;SDS011;23275;48.914;12.566;2024-01-30T11:23:44;19.15;;;13.35;;
37409;SDS011;23275;48.914;12.566;2024-01-30T11:26:10;23.02;;;13.55;;
37409;SDS011;23275;48.914;12.566;2024-01-30T11:28:37;26.33;;;13.43;;
37409;SDS011;23275;48.914;12.566;2024-01-30T11:31:06;20.98;;;13.32;;
37409;SDS011;23275;48.914;12.566;2024-01-30T11:33:32;22.42;;;13.30;;
37409;SDS011;23275;48.914;12.566;2024-01-30T11:35:59;21.58;;;12.65;;
37409;SDS011;23275;48.914;12.566;2024-01-30T11:38:25;20.85;;;13.13;;
37409;SDS011;23275;48.914;12.566;2024-01-30T11:40:55;21.75;;;12.50;;
37409;SDS011;23275;48.914;12.566;2024-01-30T11:43:24;25.73;;;13.30;;
37409;SDS011;23275;48.914;12.566;2024-01-30T11:45:50;20.73;;;12.80;;
37409;SDS011;23275;48.914;12.566;2024-01-30T11:48:16;23.40;;;12.82;;
37409;SDS011;23275;48.914;12.566;2024-01-30T11:50:42;24.98;;;13.23;;
37409;SDS011;23275;48.914;12.566;2024-01-30T11:53:09;20.40;;;11.77;;
37409;SDS011;23275;48.914;12.566;2024-01-30T11:55:35;24.50;;;13.40;;
37409;SDS011;23275;48.914;12.566;2024-01-30T11:58:02;21.15;;;12.45;;
37409;SDS011;23275;48.914;12.566;2024-01-30T12:00:29;21.77;;;13.00;;
37409;SDS011;23275;48.914;12.566;2024-01-30T12:02:55;20.40;;;12.23;;
37409;SDS011;23275;48.914;12.566;2024-01-30T12:05:22;24.27;;;12.80;;
37409;SDS011;23275;48.914;12.566;2024-01-30T12:07:48;25.75;;;13.57;;
37409;SDS011;23275;48.914;12.566;2024-01-30T12:10:14;23.90;;;12.90;;
37409;SDS011;23275;48.914;12.566;2024-01-30T12:12:40;20.75;;;12.90;;
37409;SDS011;23275;48.914;12.566;2024-01-30T12:15:08;22.67;;;12.73;;
37409;SDS011;23275;48.914;12.566;2024-01-30T12:17:34;22.55;;;12.77;;
37409;SDS011;23275;48.914;12.566;2024-01-30T12:20:03;18.63;;;12.27;;
37409;SDS011;23275;48.914;12.566;2024-01-30T12:22:35;21.02;;;12.85;;
37409;SDS011;23275;48.914;12.566;2024-01-30T12:25:16;22.08;;;13.18;;
37409;SDS011;23275;48.914;12.566;2024-01-30T12:27:47;21.30;;;12.90;;
37409;SDS011;23275;48.914;12.566;2024-01-30T12:30:15;22.92;;;13.38;;
37409;SDS011;23275;48.914;12.566;2024-01-30T12:32:42;23.33;;;13.73;;
37409;SDS011;23275;48.914;12.566;2024-01-30T12:35:13;20.55;;;12.57;;
37409;SDS011;23275;48.914;12.566;2024-01-30T12:37:42;20.65;;;13.35;;
37409;SDS011;23275;48.914;12.566;2024-01-30T12:40:08;17.98;;;12.68;;
37409;SDS011;23275;48.914;12.566;2024-01-30T12:42:35;27.23;;;14.27;;
37409;SDS011;23275;48.914;12.566;2024-01-30T12:45:04;21.83;;;12.50;;
37409;SDS011;23275;48.914;12.566;2024-01-30T12:47:30;23.38;;;13.38;;
37409;SDS011;23275;48.914;12.566;2024-01-30T12:49:56;20.05;;;12.20;;
37409;SDS011;23275;48.914;12.566;2024-01-30T12:52:21;23.00;;;11.65;;
37409;SDS011;23275;48.914;12.566;2024-01-30T12:54:50;19.40;;;11.60;;
37409;SDS011;23275;48.914;12.566;2024-01-30T12:57:16;18.75;;;12.18;;
37409;SDS011;23275;48.914;12.566;2024-01-30T12:59:43;20.65;;;12.27;;
37409;SDS011;23275;48.914;12.566;2024-01-30T13:02:09;21.55;;;12.23;;
37409;SDS011;23275;48.914;12.566;2024-01-30T13:04:35;18.25;;;11.95;;
37409;SDS011;23275;48.914;12.566;2024-01-30T13:07:01;25.42;;;13.05;;
37409;SDS011;23275;48.914;12.566;2024-01-30T13:09:27;20.85;;;12.50;;
37409;SDS011;23275;48.914;12.566;2024-01-30T13:11:54;19.30;;;11.63;;
37409;SDS011;23275;48.914;12.566;2024-01-30T13:14:20;19.67;;;12.15;;
37409;SDS011;23275;48.914;12.566;2024-01-30T13:16:46;16.90;;;11.35;;
37409;SDS011;23275;48.914;12.566;2024-01-30T13:19:12;17.58;;;10.63;;
37409;SDS011;23275;48.914;12.566;2024-01-30T13:21:37;16.00;;;10.65;;
37409;SDS011;23275;48.914;12.566;2024-01-30T13:24:03;20.40;;;11.75;;
37409;SDS011;23275;48.914;12.566;2024-01-30T13:26:31;21.27;;;12.02;;
37409;SDS011;23275;48.914;12.566;2024-01-30T13:28:57;24.80;;;11.60;;
37409;SDS011;23275;48.914;12.566;2024-01-30T13:31:22;22.23;;;11.57;;
37409;SDS011;23275;48.914;12.566;2024-01-30T13:33:48;24.73;;;12.38;;
37409;SDS011;23275;48.914;12.566;2024-01-30T13:36:14;18.95;;;12.68;;
37409;SDS011;23275;48.914;12.566;2024-01-30T13:38:40;22.00;;;13.05;;
37409;SDS011;23275;48.914;12.566;2024-01-30T13:41:05;21.15;;;12.93;;
37409;SDS011;23275;48.914;12.566;2024-01-30T13:43:31;21.13;;;13.50;;
37409;SDS011;23275;48.914;12.566;2024-01-30T13:45:56;22.15;;;13.48;;
37409;SDS011;23275;48.914;12.566;2024-01-30T13:48:22;22.23;;;13.77;;
37409;SDS011;23275;48.914;12.566;2024-01-30T13:50:48;23.50;;;13.10;;
37409;SDS011;23275;48.914;12.566;2024-01-30T13:53:13;22.92;;;13.02;;
37409;SDS011;23275;48.914;12.566;2024-01-30T13:55:39;23.85;;;13.07;;
37409;SDS011;23275;48.914;12.566;2024-01-30T13:58:05;25.08;;;12.40;;
37409;SDS011;23275;48.914;12.566;2024-01-30T14:00:31;21.38;;;12.45;;
37409;SDS011;23275;48.914;12.566;2024-01-30T14:02:58;21.63;;;11.57;;
37409;SDS011;23275;48.914;12.566;2024-01-30T14:05:24;19.58;;;12.60;;
37409;SDS011;23275;48.914;12.566;2024-01-30T14:07:51;19.92;;;11.52;;